createdAt,value
2023-04-04T00:02:24.105Z,7.28
2023-04-04T00:04:51.399Z,7.88
2023-04-04T00:07:18.711Z,6.47
2023-04-04T00:09:45.982Z,7.55
2023-04-04T00:12:13.633Z,4.28
2023-04-04T00:14:40.881Z,6.70
2023-04-04T00:17:08.071Z,5.68
2023-04-04T00:19:35.331Z,5.43
2023-04-04T00:22:02.628Z,6.53
2023-04-04T00:24:30.628Z,3.70
2023-04-04T00:26:57.864Z,4.82
2023-04-04T00:29:25.065Z,4.30
2023-04-04T00:31:52.355Z,4.90
2023-04-04T00:34:19.861Z,7.57
2023-04-04T00:36:47.781Z,5.28
2023-04-04T00:39:15.029Z,4.95
2023-04-04T00:41:42.531Z,4.22
2023-04-04T00:44:09.754Z,6.97
2023-04-04T00:46:36.987Z,6.38
2023-04-04T00:49:04.271Z,6.28
2023-04-04T00:51:31.496Z,4.50
2023-04-04T00:53:59.442Z,5.30
2023-04-04T00:56:28.965Z,5.20
2023-04-04T00:58:57.053Z,4.55
2023-04-04T01:01:27.354Z,4.20
2023-04-04T01:03:54.850Z,5.70
2023-04-04T01:06:22.184Z,6.35
2023-04-04T01:08:49.871Z,5.68
2023-04-04T01:11:17.910Z,8.68
2023-04-04T01:13:46.687Z,3.50
2023-04-04T01:16:16.568Z,8.80
2023-04-04T01:18:44.784Z,5.88
2023-04-04T01:21:13.617Z,6.07
2023-04-04T01:26:09.525Z,4.75
2023-04-04T01:31:11.418Z,7.63
2023-04-04T01:33:43.471Z,7.10
2023-04-04T01:36:37.082Z,6.20
2023-04-04T01:39:09.896Z,6.10
2023-04-04T01:41:38.114Z,5.82
2023-04-04T01:44:05.853Z,6.45
2023-04-04T01:46:33.891Z,5.38
2023-04-04T01:49:01.326Z,5.80
2023-04-04T01:51:33.265Z,5.55
2023-04-04T01:54:00.588Z,8.90
2023-04-04T01:56:28.456Z,7.78
2023-04-04T01:58:56.183Z,6.65
2023-04-04T02:01:24.116Z,8.40
2023-04-04T02:03:52.874Z,5.75
2023-04-04T02:06:20.200Z,7.97
2023-04-04T02:08:48.175Z,8.30
2023-04-04T02:11:16.178Z,6.75
2023-04-04T02:13:44.512Z,6.20
2023-04-04T02:16:15.586Z,6.07
2023-04-04T02:18:43.071Z,9.20
2023-04-04T02:21:10.610Z,9.38
2023-04-04T02:23:39.003Z,9.27
2023-04-04T02:26:06.533Z,9.97
2023-04-04T02:28:33.773Z,7.18
2023-04-04T02:31:04.633Z,5.78
2023-04-04T02:33:32.061Z,8.48
2023-04-04T02:36:02.991Z,7.50
2023-04-04T02:38:30.762Z,7.78
2023-04-04T02:40:59.843Z,7.70
2023-04-04T02:43:27.107Z,8.27
2023-04-04T02:45:54.528Z,8.90
2023-04-04T02:48:25.804Z,8.35
2023-04-04T02:50:57.162Z,6.75
2023-04-04T02:53:24.442Z,7.20
2023-04-04T02:55:54.673Z,8.52
2023-04-04T02:58:22.512Z,8.65
2023-04-04T03:00:56.306Z,9.82
2023-04-04T03:03:28.550Z,6.93
2023-04-04T03:05:56.641Z,6.95
2023-04-04T03:08:24.276Z,7.97
2023-04-04T03:10:51.541Z,9.43
2023-04-04T03:13:18.810Z,10.77
2023-04-04T03:15:47.338Z,9.38
2023-04-04T03:18:16.458Z,8.88
2023-04-04T03:20:43.742Z,9.65
2023-04-04T03:23:10.966Z,8.40
2023-04-04T03:25:38.188Z,10.38
2023-04-04T03:28:10.467Z,8.23
2023-04-04T03:30:38.231Z,11.60
2023-04-04T03:33:09.831Z,12.27
2023-04-04T03:35:38.759Z,8.63
2023-04-04T03:38:06.711Z,8.63
2023-04-04T03:40:33.971Z,11.93
2023-04-04T03:43:04.406Z,8.70
2023-04-04T03:45:34.473Z,8.65
2023-04-04T03:48:02.224Z,11.38
2023-04-04T03:50:31.344Z,11.23
2023-04-04T03:52:59.721Z,10.13
2023-04-04T03:55:27.173Z,12.00
2023-04-04T03:57:58.992Z,9.15
2023-04-04T04:00:27.178Z,7.53
2023-04-04T04:02:54.701Z,13.85
2023-04-04T04:05:22.042Z,8.60
2023-04-04T04:07:49.332Z,9.40
2023-04-04T04:10:17.006Z,9.07
2023-04-04T04:12:44.268Z,8.65
2023-04-04T04:15:11.827Z,8.00
2023-04-04T04:17:42.047Z,8.73
2023-04-04T04:20:11.284Z,8.98
2023-04-04T04:22:47.325Z,10.38
2023-04-04T04:25:15.139Z,7.18
2023-04-04T04:27:46.072Z,13.23
2023-04-04T04:30:14.352Z,12.48
2023-04-04T04:32:44.833Z,9.93
2023-04-04T04:35:13.289Z,9.50
2023-04-04T04:37:42.048Z,9.10
2023-04-04T04:40:10.565Z,9.50
2023-04-04T04:42:45.042Z,13.07
2023-04-04T04:45:13.078Z,10.27
2023-04-04T04:47:44.984Z,10.13
2023-04-04T04:50:16.733Z,9.13
2023-04-04T04:52:47.616Z,9.23
2023-04-04T04:55:14.913Z,10.13
2023-04-04T04:57:48.305Z,9.15
2023-04-04T05:00:23.425Z,9.55
2023-04-04T05:02:51.287Z,10.45
2023-04-04T05:05:26.750Z,5.55
2023-04-04T05:07:58.677Z,10.10
2023-04-04T05:10:26.444Z,10.60
2023-04-04T05:12:53.886Z,9.85
2023-04-04T05:15:25.893Z,8.23
2023-04-04T05:17:53.665Z,11.18
2023-04-04T05:22:51.655Z,9.73
2023-04-04T05:25:27.635Z,8.02
2023-04-04T05:27:55.913Z,13.80
2023-04-04T05:30:23.670Z,9.65
2023-04-04T05:33:09.920Z,12.63
2023-04-04T05:35:41.236Z,11.07
2023-04-04T05:40:36.455Z,10.35
2023-04-04T05:43:09.442Z,9.48
2023-04-04T05:45:47.775Z,12.60
2023-04-04T05:48:15.866Z,10.98
2023-04-04T05:50:49.695Z,13.23
2023-04-04T05:53:20.956Z,9.23
2023-04-04T05:55:54.046Z,13.55
2023-04-04T05:58:27.714Z,14.60
2023-04-04T06:00:58.039Z,10.85
2023-04-04T06:03:25.616Z,14.32
2023-04-04T06:05:53.829Z,11.25
2023-04-04T06:08:22.328Z,13.13
2023-04-04T06:10:49.742Z,12.43
2023-04-04T06:13:17.456Z,13.85
2023-04-04T06:15:50.823Z,10.55
2023-04-04T06:18:21.215Z,13.95
2023-04-04T06:20:48.608Z,15.90
2023-04-04T06:23:17.522Z,14.18
2023-04-04T06:25:48.361Z,13.18
2023-04-04T06:28:18.083Z,15.25
2023-04-04T06:30:47.972Z,11.90
2023-04-04T06:33:18.138Z,17.63
2023-04-04T06:35:49.318Z,12.85
2023-04-04T06:38:17.699Z,13.80
2023-04-04T06:40:45.239Z,13.27
2023-04-04T06:43:13.168Z,11.10
2023-04-04T06:45:45.250Z,13.18
2023-04-04T06:48:12.526Z,9.80
2023-04-04T06:50:40.263Z,12.60
2023-04-04T06:53:12.249Z,9.85
2023-04-04T06:55:39.600Z,10.57
2023-04-04T06:58:06.803Z,9.02
2023-04-04T07:00:34.702Z,10.85
2023-04-04T07:03:02.494Z,9.90
2023-04-04T07:05:29.820Z,10.77
2023-04-04T07:07:57.216Z,11.27
2023-04-04T07:10:25.414Z,9.23
2023-04-04T07:12:52.745Z,12.60
2023-04-04T07:15:20.034Z,10.52
2023-04-04T07:17:47.282Z,8.98
2023-04-04T07:20:14.584Z,8.43
2023-04-04T07:22:42.581Z,10.35
2023-04-04T07:25:10.183Z,10.98
2023-04-04T07:27:37.502Z,10.38
2023-04-04T07:30:05.242Z,10.85
2023-04-04T07:32:32.605Z,10.00
2023-04-04T07:34:59.999Z,13.35
2023-04-04T07:37:27.259Z,13.38
2023-04-04T07:39:54.516Z,9.38
2023-04-04T07:42:25.364Z,11.65
2023-04-04T07:44:53.139Z,7.40
2023-04-04T07:47:21.445Z,9.48
2023-04-04T07:49:48.782Z,11.13
2023-04-04T07:52:16.410Z,7.95
2023-04-04T07:54:43.727Z,6.35
2023-04-04T07:57:11.074Z,7.20
2023-04-04T07:59:38.332Z,5.63
2023-04-04T08:02:05.571Z,7.07
2023-04-04T08:04:32.903Z,6.97
2023-04-04T08:07:00.194Z,7.10
2023-04-04T08:09:31.347Z,8.02
2023-04-04T08:11:58.754Z,7.20
2023-04-04T08:14:27.009Z,8.13
2023-04-04T08:16:54.314Z,12.30
2023-04-04T08:19:22.023Z,6.13
2023-04-04T08:21:50.061Z,7.22
2023-04-04T08:24:17.332Z,6.68
2023-04-04T08:26:49.112Z,3.70
2023-04-04T08:29:22.201Z,6.55
2023-04-04T08:31:50.038Z,5.30
2023-04-04T08:34:17.382Z,4.72
2023-04-04T08:36:44.630Z,6.43
2023-04-04T08:39:11.881Z,3.92
2023-04-04T08:41:39.674Z,4.65
2023-04-04T08:44:08.909Z,5.70
2023-04-04T08:49:04.775Z,4.80
2023-04-04T08:51:32.965Z,4.28
2023-04-04T08:54:00.606Z,5.85
2023-04-04T08:56:28.694Z,6.45
2023-04-04T08:58:56.119Z,5.07
2023-04-04T09:01:23.776Z,5.43
2023-04-04T09:03:52.378Z,4.18
2023-04-04T09:06:19.686Z,5.13
2023-04-04T09:08:48.007Z,5.40
2023-04-04T09:11:15.526Z,5.65
2023-04-04T09:13:43.421Z,5.38
2023-04-04T09:16:10.717Z,7.50
2023-04-04T09:18:38.030Z,6.80
2023-04-04T09:21:11.965Z,4.28
2023-04-04T09:23:39.648Z,5.10
2023-04-04T09:26:07.275Z,5.25
2023-04-04T09:28:36.051Z,5.53
2023-04-04T09:31:05.650Z,6.03
2023-04-04T09:33:33.652Z,6.25
2023-04-04T09:36:12.907Z,5.78
2023-04-04T09:38:45.425Z,5.90
2023-04-04T09:41:16.102Z,4.25
2023-04-04T09:43:45.757Z,6.80
2023-04-04T09:46:13.277Z,5.72
2023-04-04T09:48:41.616Z,4.00
2023-04-04T09:51:12.890Z,5.53
2023-04-04T09:53:42.096Z,7.10
2023-04-04T09:58:38.041Z,6.43
2023-04-04T10:01:10.545Z,6.05
2023-04-04T10:03:39.373Z,7.55
2023-04-04T10:06:07.950Z,7.05
2023-04-04T10:08:36.016Z,5.05
2023-04-04T10:11:11.922Z,4.05
2023-04-04T10:13:46.705Z,5.43
2023-04-04T10:16:14.012Z,5.65
2023-04-04T10:18:41.574Z,5.85
2023-04-04T10:23:42.065Z,6.82
2023-04-04T10:26:09.897Z,5.20
2023-04-04T10:28:37.782Z,5.72
2023-04-04T10:31:11.034Z,4.45
2023-04-04T10:33:57.156Z,6.65
2023-04-04T10:36:26.104Z,4.80
2023-04-04T10:39:00.439Z,5.30
2023-04-04T10:41:30.817Z,7.32
2023-04-04T10:44:01.327Z,8.55
2023-04-04T10:46:31.749Z,6.57
2023-04-04T10:49:01.273Z,5.63
2023-04-04T10:51:28.752Z,7.40
2023-04-04T10:53:56.023Z,7.43
2023-04-04T10:56:23.302Z,4.97
2023-04-04T10:58:50.923Z,5.75
2023-04-04T11:01:21.266Z,5.53
2023-04-04T11:04:08.271Z,7.10
2023-04-04T11:06:54.939Z,8.95
2023-04-04T11:09:41.166Z,6.38
2023-04-04T11:12:08.898Z,7.50
2023-04-04T11:14:37.416Z,4.18
2023-04-04T11:17:08.365Z,7.50
2023-04-04T11:19:35.613Z,5.38
2023-04-04T11:22:03.574Z,5.82
2023-04-04T11:24:31.092Z,4.32
2023-04-04T11:26:58.396Z,6.45
2023-04-04T11:29:45.625Z,6.78
2023-04-04T11:32:28.214Z,6.57
2023-04-04T11:34:57.549Z,6.50
2023-04-04T11:37:24.845Z,5.03
2023-04-04T11:39:57.454Z,5.55
2023-04-04T11:42:25.000Z,5.32
2023-04-04T11:44:55.093Z,6.82
2023-04-04T11:47:24.856Z,6.32
2023-04-04T11:49:54.119Z,8.27
2023-04-04T11:52:21.556Z,5.35
2023-04-04T11:54:49.109Z,5.63
2023-04-04T11:57:18.031Z,7.72
2023-04-04T11:59:54.187Z,8.23
2023-04-04T12:02:24.799Z,6.55
2023-04-04T12:04:52.498Z,7.00
2023-04-04T12:07:20.478Z,6.05
2023-04-04T12:09:48.626Z,5.60
2023-04-04T12:12:16.566Z,5.80
2023-04-04T12:14:44.068Z,6.45
2023-04-04T12:17:11.699Z,5.65
2023-04-04T12:19:39.635Z,6.57
2023-04-04T12:22:08.200Z,6.47
2023-04-04T12:24:36.064Z,5.20
2023-04-04T12:27:03.647Z,5.75
2023-04-04T12:29:36.521Z,7.20
2023-04-04T12:32:04.756Z,7.50
2023-04-04T12:34:36.155Z,6.78
2023-04-04T12:37:04.129Z,8.93
2023-04-04T12:39:31.945Z,6.05
2023-04-04T12:42:01.287Z,6.13
2023-04-04T12:44:32.413Z,6.38
2023-04-04T12:47:00.703Z,7.30
2023-04-04T12:49:31.635Z,5.85
2023-04-04T12:52:04.909Z,6.57
2023-04-04T12:54:33.035Z,5.03
2023-04-04T12:57:04.156Z,8.00
2023-04-04T12:59:32.372Z,4.97
2023-04-04T13:02:02.283Z,8.38
2023-04-04T13:04:29.794Z,8.50
2023-04-04T13:06:57.086Z,6.60
2023-04-04T13:09:24.482Z,5.22
2023-04-04T13:12:04.422Z,7.07
2023-04-04T13:14:50.333Z,5.63
2023-04-04T13:17:19.407Z,8.07
2023-04-04T13:19:46.636Z,6.65
2023-04-04T13:22:14.106Z,7.28
2023-04-04T13:24:41.359Z,9.57
2023-04-04T13:27:08.663Z,7.40
2023-04-04T13:29:35.934Z,6.15
2023-04-04T13:32:04.875Z,4.88
2023-04-04T13:34:32.513Z,6.32
2023-04-04T13:36:59.824Z,5.57
2023-04-04T13:39:27.516Z,5.30
2023-04-04T13:41:54.789Z,5.20
2023-04-04T13:44:22.028Z,7.90
2023-04-04T13:46:49.306Z,8.93
2023-04-04T13:49:16.515Z,7.28
2023-04-04T13:51:43.801Z,6.25
2023-04-04T13:54:11.250Z,7.90
2023-04-04T13:56:38.572Z,6.55
2023-04-04T13:59:05.865Z,7.05
2023-04-04T14:01:33.388Z,6.18
2023-04-04T14:04:03.414Z,6.60
2023-04-04T14:06:32.949Z,5.75
2023-04-04T14:09:00.562Z,7.45
2023-04-04T14:11:31.119Z,8.63
2023-04-04T14:13:58.746Z,7.10
2023-04-04T14:16:26.115Z,6.53
2023-04-04T14:18:53.454Z,8.95
2023-04-04T14:21:20.719Z,4.82
2023-04-04T14:23:48.087Z,5.63
2023-04-04T14:26:15.357Z,6.95
2023-04-04T14:28:42.718Z,7.35
2023-04-04T14:31:10.067Z,5.50
2023-04-04T14:33:37.330Z,6.75
2023-04-04T14:36:04.647Z,5.63
2023-04-04T14:38:31.929Z,7.97
2023-04-04T14:41:01.068Z,8.02
2023-04-04T14:45:55.555Z,7.15
2023-04-04T14:48:22.769Z,5.40
2023-04-04T14:50:50.003Z,7.03
2023-04-04T14:53:17.876Z,8.32
2023-04-04T14:55:45.462Z,9.43
2023-04-04T14:58:13.129Z,8.95
2023-04-04T15:00:40.661Z,7.35
2023-04-04T15:03:08.422Z,6.43
2023-04-04T15:05:36.515Z,7.68
2023-04-04T15:08:03.938Z,7.38
2023-04-04T15:10:31.218Z,7.47
2023-04-04T15:12:58.562Z,6.05
2023-04-04T15:15:29.155Z,8.43
2023-04-04T15:17:56.526Z,7.75
2023-04-04T15:20:23.773Z,7.38
2023-04-04T15:22:50.950Z,7.53
2023-04-04T15:25:18.253Z,6.97
2023-04-04T15:27:45.448Z,5.30
2023-04-04T15:30:13.557Z,8.68
2023-04-04T15:32:40.795Z,6.43
2023-04-04T15:35:15.793Z,8.32
2023-04-04T15:37:42.992Z,9.98
2023-04-04T15:40:11.092Z,5.72
2023-04-04T15:42:38.749Z,6.50
2023-04-04T15:45:06.952Z,8.60
2023-04-04T15:47:34.488Z,8.13
2023-04-04T15:50:01.852Z,9.57
2023-04-04T15:52:29.151Z,9.68
2023-04-04T15:54:56.539Z,8.35
2023-04-04T15:57:24.023Z,6.57
2023-04-04T15:59:51.378Z,10.10
2023-04-04T16:02:18.666Z,5.75
2023-04-04T16:04:46.008Z,10.27
2023-04-04T16:07:13.215Z,7.50
2023-04-04T16:09:40.553Z,8.80
2023-04-04T16:12:07.802Z,7.93
2023-04-04T16:14:35.114Z,7.25
2023-04-04T16:17:03.169Z,8.00
2023-04-04T16:19:30.655Z,7.65
2023-04-04T16:21:58.529Z,8.13
2023-04-04T16:24:25.748Z,7.93
2023-04-04T16:26:53.032Z,7.07
2023-04-04T16:29:21.329Z,5.63
2023-04-04T16:31:48.660Z,7.03
2023-04-04T16:34:16.225Z,9.30
2023-04-04T16:36:43.500Z,8.52
2023-04-04T16:39:11.280Z,9.57
2023-04-04T16:41:41.130Z,6.45
2023-04-04T16:44:08.714Z,10.43
2023-04-04T16:46:36.344Z,8.35
2023-04-04T16:49:03.681Z,8.38
2023-04-04T16:51:31.974Z,7.00
2023-04-04T16:53:59.296Z,8.10
2023-04-04T16:56:26.630Z,9.95
2023-04-04T16:58:53.977Z,8.18
2023-04-04T17:01:22.816Z,9.80
2023-04-04T17:03:50.549Z,9.23
2023-04-04T17:06:17.941Z,13.80
2023-04-04T17:08:46.736Z,9.07
2023-04-04T17:11:14.160Z,8.98
2023-04-04T17:13:41.407Z,9.35
2023-04-04T17:16:09.258Z,9.68
2023-04-04T17:18:37.323Z,5.93
2023-04-04T17:21:04.645Z,7.28
2023-04-04T17:23:32.017Z,8.40
2023-04-04T17:25:59.222Z,14.68
2023-04-04T17:28:26.479Z,11.25
2023-04-04T17:30:53.725Z,10.38
2023-04-04T17:33:23.173Z,8.60
2023-04-04T17:35:50.743Z,11.68
2023-04-04T17:38:18.449Z,9.07
2023-04-04T17:40:46.092Z,10.35
2023-04-04T17:43:13.406Z,7.20
2023-04-04T17:45:40.658Z,9.13
2023-04-04T17:48:08.021Z,12.18
2023-04-04T17:50:35.212Z,8.77
2023-04-04T17:53:02.735Z,10.40
2023-04-04T17:55:30.465Z,10.52
2023-04-04T17:57:57.852Z,9.45
2023-04-04T18:00:25.656Z,11.38
2023-04-04T18:02:52.922Z,12.63
2023-04-04T18:05:20.237Z,10.52
2023-04-04T18:07:47.467Z,9.30
2023-04-04T18:10:14.700Z,11.43
2023-04-04T18:12:42.581Z,9.63
2023-04-04T18:15:10.921Z,8.93
2023-04-04T18:17:39.673Z,11.17
2023-04-04T18:20:08.526Z,12.45
2023-04-04T18:22:36.861Z,10.93
2023-04-04T18:25:04.360Z,8.17
2023-04-04T18:27:32.292Z,11.73
2023-04-04T18:29:59.538Z,8.52
2023-04-04T18:32:28.533Z,11.07
2023-04-04T18:34:55.883Z,8.50
2023-04-04T18:37:23.267Z,8.93
2023-04-04T18:39:50.603Z,11.13
2023-04-04T18:42:17.983Z,11.77
2023-04-04T18:44:47.856Z,10.35
2023-04-04T18:47:15.071Z,11.40
2023-04-04T18:49:42.345Z,12.40
2023-04-04T18:52:09.626Z,10.25
2023-04-04T18:54:37.283Z,13.82
2023-04-04T18:57:04.585Z,10.48
2023-04-04T18:59:32.044Z,10.43
2023-04-04T19:02:00.851Z,12.00
2023-04-04T19:04:29.371Z,10.70
2023-04-04T19:06:56.603Z,10.13
2023-04-04T19:09:23.846Z,10.80
2023-04-04T19:11:53.972Z,11.93
2023-04-04T19:14:21.237Z,11.60
2023-04-04T19:16:48.479Z,10.52
2023-04-04T19:19:15.836Z,13.75
2023-04-04T19:21:43.198Z,11.30
2023-04-04T19:24:11.635Z,14.57
2023-04-04T19:26:39.159Z,11.70
2023-04-04T19:29:06.877Z,8.85
2023-04-04T19:31:36.745Z,11.23
2023-04-04T19:34:09.543Z,13.75
2023-04-04T19:36:37.842Z,11.68
2023-04-04T19:39:06.393Z,11.02
2023-04-04T19:41:34.798Z,13.10
2023-04-04T19:44:02.445Z,14.27
2023-04-04T19:46:32.502Z,13.05
2023-04-04T19:49:09.908Z,12.73
2023-04-04T19:51:38.690Z,11.73
2023-04-04T19:54:08.208Z,12.13
2023-04-04T19:56:36.197Z,14.05
2023-04-04T19:59:06.202Z,12.35
2023-04-04T20:01:35.390Z,11.23
2023-04-04T20:04:09.776Z,10.00
2023-04-04T20:06:38.701Z,14.60
2023-04-04T20:09:13.155Z,12.23
2023-04-04T20:11:40.706Z,11.30
2023-04-04T20:14:08.793Z,14.10
2023-04-04T20:16:36.475Z,12.13
2023-04-04T20:19:06.614Z,11.45
2023-04-04T20:21:35.714Z,13.38
2023-04-04T20:26:47.614Z,11.43
2023-04-04T20:32:01.482Z,12.93
2023-04-04T20:34:42.276Z,17.25
2023-04-04T20:37:21.858Z,15.82
2023-04-04T20:42:28.768Z,15.43
2023-04-04T20:44:56.582Z,10.43
2023-04-04T20:47:29.716Z,12.25
2023-04-04T20:49:57.106Z,13.32
2023-04-04T20:52:24.421Z,15.98
2023-04-04T20:54:51.664Z,14.77
2023-04-04T20:57:23.264Z,12.85
2023-04-04T20:59:50.580Z,14.90
2023-04-04T21:02:23.334Z,13.63
2023-04-04T21:04:51.808Z,13.90
2023-04-04T21:07:34.937Z,15.38
2023-04-04T21:10:02.274Z,15.23
2023-04-04T21:12:29.560Z,15.30
2023-04-04T21:14:56.802Z,13.45
2023-04-04T21:17:24.229Z,16.83
2023-04-04T21:19:52.195Z,13.88
2023-04-04T21:22:19.652Z,13.63
2023-04-04T21:24:46.972Z,15.65
2023-04-04T21:27:32.966Z,16.27
2023-04-04T21:30:00.320Z,15.05
2023-04-04T21:32:27.587Z,14.85
2023-04-04T21:34:54.865Z,15.13
2023-04-04T21:37:22.391Z,13.75
2023-04-04T21:39:50.372Z,14.48
2023-04-04T21:42:18.825Z,14.98
2023-04-04T21:44:46.101Z,13.23
2023-04-04T21:47:14.658Z,16.92
2023-04-04T21:49:43.013Z,13.18
2023-04-04T21:52:10.388Z,13.50
2023-04-04T21:54:37.678Z,15.32
2023-04-04T21:57:04.915Z,14.57
2023-04-04T21:59:32.234Z,15.50
2023-04-04T22:01:59.578Z,14.50
2023-04-04T22:04:26.974Z,13.85
2023-04-04T22:06:54.334Z,12.40
2023-04-04T22:09:22.731Z,11.20
2023-04-04T22:11:50.023Z,13.80
2023-04-04T22:14:17.844Z,12.68
2023-04-04T22:16:45.728Z,9.95
2023-04-04T22:19:13.041Z,10.63
2023-04-04T22:21:46.771Z,10.23
2023-04-04T22:24:17.653Z,13.18
2023-04-04T22:26:45.857Z,12.43
2023-04-04T22:29:13.264Z,12.90
2023-04-04T22:31:40.592Z,9.70
2023-04-04T22:34:07.938Z,13.52
2023-04-04T22:36:35.482Z,12.70
2023-04-04T22:39:02.842Z,13.18
2023-04-04T22:41:30.412Z,10.15
2023-04-04T22:43:58.203Z,13.73
2023-04-04T22:46:28.825Z,12.07
2023-04-04T22:49:06.907Z,11.40
2023-04-04T22:51:45.745Z,10.20
2023-04-04T22:54:17.017Z,12.10
2023-04-04T22:56:44.573Z,10.52
2023-04-04T22:59:12.042Z,11.88
2023-04-04T23:01:39.513Z,13.35
2023-04-04T23:04:06.832Z,10.80
2023-04-04T23:06:34.287Z,11.00
2023-04-04T23:09:02.747Z,10.75
2023-04-04T23:11:30.481Z,17.73
2023-04-04T23:13:57.814Z,11.05
2023-04-04T23:16:26.080Z,10.40
2023-04-04T23:18:53.504Z,11.65
2023-04-04T23:21:21.989Z,13.13
2023-04-04T23:23:49.591Z,14.27
2023-04-04T23:26:16.911Z,10.35
2023-04-04T23:28:44.117Z,12.13
2023-04-04T23:31:11.523Z,11.35
2023-04-04T23:33:38.923Z,10.15
2023-04-04T23:36:06.364Z,11.75
2023-04-04T23:38:33.597Z,11.45
2023-04-04T23:41:00.801Z,11.18
2023-04-04T23:43:28.404Z,11.15
2023-04-04T23:45:55.625Z,10.50
2023-04-04T23:48:23.052Z,9.18
2023-04-04T23:50:54.285Z,11.65
2023-04-04T23:53:21.648Z,10.77
2023-04-04T23:55:48.871Z,12.93
2023-04-04T23:58:16.964Z,11.52
